createdAt,value
2018-03-01T00:02:03.218Z,-12.30
2018-03-01T00:04:31.575Z,-12.30
2018-03-01T00:06:59.995Z,-12.30
2018-03-01T00:09:28.352Z,-12.30
2018-03-01T00:11:56.777Z,-12.30
2018-03-01T00:14:25.290Z,-12.30
2018-03-01T00:16:53.655Z,-12.30
2018-03-01T00:19:22.033Z,-12.40
2018-03-01T00:21:50.480Z,-12.40
2018-03-01T00:24:19.616Z,-12.40
2018-03-01T00:26:48.876Z,-12.40
2018-03-01T00:29:17.226Z,-12.40
2018-03-01T00:31:45.569Z,-12.50
2018-03-01T00:34:14.019Z,-12.50
2018-03-01T00:36:42.354Z,-12.40
2018-03-01T00:39:10.699Z,-12.50
2018-03-01T00:41:39.155Z,-12.50
2018-03-01T00:44:07.476Z,-12.50
2018-03-01T00:46:35.894Z,-12.50
2018-03-01T00:49:05.164Z,-12.50
2018-03-01T00:51:34.290Z,-12.40
2018-03-01T00:54:02.624Z,-12.50
2018-03-01T00:56:31.022Z,-12.50
2018-03-01T00:58:59.358Z,-12.60
2018-03-01T01:01:28.440Z,-12.50
2018-03-01T01:03:56.776Z,-12.50
2018-03-01T01:06:25.133Z,-12.50
2018-03-01T01:08:54.264Z,-12.50
2018-03-01T01:11:22.778Z,-12.50
2018-03-01T01:13:51.206Z,-12.50
2018-03-01T01:16:20.361Z,-12.50
2018-03-01T01:18:48.739Z,-12.60
2018-03-01T01:21:18.011Z,-12.60
2018-03-01T01:23:46.419Z,-12.60
2018-03-01T01:26:14.758Z,-12.50
2018-03-01T01:28:43.098Z,-12.60
2018-03-01T01:31:11.488Z,-12.60
2018-03-01T01:33:39.824Z,-12.60
2018-03-01T01:36:08.320Z,-12.50
2018-03-01T01:38:36.654Z,-12.50
2018-03-01T01:41:04.990Z,-12.60
2018-03-01T01:43:33.344Z,-12.60
2018-03-01T01:46:01.701Z,-12.60
2018-03-01T01:48:30.173Z,-12.60
2018-03-01T01:51:04.314Z,-12.60
2018-03-01T01:53:32.720Z,-12.60
2018-03-01T01:56:01.115Z,-12.60
2018-03-01T01:58:29.453Z,-12.60
2018-03-01T02:00:57.836Z,-12.60
2018-03-01T02:03:26.952Z,-12.60
2018-03-01T02:05:55.368Z,-12.70
2018-03-01T02:08:23.699Z,-12.60
2018-03-01T02:10:52.852Z,-12.60
2018-03-01T02:13:21.260Z,-12.60
2018-03-01T02:15:49.624Z,-12.50
2018-03-01T02:18:18.785Z,-12.60
2018-03-01T02:20:47.097Z,-12.60
2018-03-01T02:23:15.407Z,-12.50
2018-03-01T02:25:43.721Z,-12.50
2018-03-01T02:28:12.785Z,-12.50
2018-03-01T02:30:41.137Z,-12.60
2018-03-01T02:33:10.412Z,-12.50
2018-03-01T02:35:38.726Z,-12.50
2018-03-01T02:38:07.791Z,-12.40
2018-03-01T02:40:36.201Z,-12.50
2018-03-01T02:43:04.494Z,-12.40
2018-03-01T02:45:32.957Z,-12.40
2018-03-01T02:48:01.275Z,-12.50
2018-03-01T02:50:29.607Z,-12.50
2018-03-01T02:52:58.014Z,-12.50
2018-03-01T02:55:26.407Z,-12.50
2018-03-01T02:57:55.092Z,-12.50
2018-03-01T03:00:23.471Z,-12.50
2018-03-01T03:02:51.839Z,-12.50
2018-03-01T03:05:20.228Z,-12.50
2018-03-01T03:07:49.397Z,-12.50
2018-03-01T03:10:17.786Z,-12.50
2018-03-01T03:12:46.103Z,-12.50
2018-03-01T03:15:14.442Z,-12.50
2018-03-01T03:17:42.767Z,-12.60
2018-03-01T03:20:11.079Z,-12.60
2018-03-01T03:22:39.771Z,-12.60
2018-03-01T03:25:08.085Z,-12.60
2018-03-01T03:27:36.402Z,-12.50
2018-03-01T03:30:05.475Z,-12.70
2018-03-01T03:32:33.946Z,-12.70
2018-03-01T03:35:02.261Z,-12.60
2018-03-01T03:37:30.578Z,-12.70
2018-03-01T03:39:59.660Z,-12.70
2018-03-01T03:42:28.013Z,-12.70
2018-03-01T03:44:56.425Z,-12.70
2018-03-01T03:47:24.750Z,-12.60
2018-03-01T03:49:53.865Z,-12.70
2018-03-01T03:52:23.078Z,-12.70
2018-03-01T03:54:52.368Z,-12.70
2018-03-01T03:57:21.563Z,-12.70
2018-03-01T03:59:49.934Z,-12.70
2018-03-01T04:02:18.264Z,-12.60
2018-03-01T04:04:46.573Z,-12.60
2018-03-01T04:07:15.695Z,-12.70
2018-03-01T04:09:43.994Z,-12.70
2018-03-01T04:12:12.301Z,-12.70
2018-03-01T04:14:40.610Z,-12.70
2018-03-01T04:17:08.959Z,-12.70
2018-03-01T04:19:37.256Z,-12.70
2018-03-01T04:22:05.562Z,-12.70
2018-03-01T04:24:33.912Z,-12.60
2018-03-01T04:27:02.991Z,-12.60
2018-03-01T04:29:31.365Z,-12.60
2018-03-01T04:31:59.677Z,-12.60
2018-03-01T04:34:28.067Z,-12.60
2018-03-01T04:36:56.480Z,-12.60
2018-03-01T04:39:25.604Z,-12.50
2018-03-01T04:41:54.816Z,-12.50
2018-03-01T04:44:23.917Z,-12.50
2018-03-01T04:46:53.106Z,-12.50
2018-03-01T04:49:21.516Z,-12.60
2018-03-01T04:51:50.623Z,-12.50
2018-03-01T04:54:19.730Z,-12.50
2018-03-01T04:56:48.823Z,-12.50
2018-03-01T04:59:17.967Z,-12.50
2018-03-01T05:01:47.962Z,-12.50
2018-03-01T05:04:16.272Z,-12.50
2018-03-01T05:06:44.594Z,-12.40
2018-03-01T05:09:12.899Z,-12.40
2018-03-01T05:11:41.219Z,-12.40
2018-03-01T05:14:09.668Z,-12.40
2018-03-01T05:16:38.108Z,-12.40
2018-03-01T05:19:06.430Z,-12.40
2018-03-01T05:21:35.499Z,-12.40
2018-03-01T05:24:03.797Z,-12.40
2018-03-01T05:26:32.173Z,-12.40
2018-03-01T05:29:00.471Z,-12.40
2018-03-01T05:31:28.823Z,-12.40
2018-03-01T05:33:57.166Z,-12.40
2018-03-01T05:36:25.603Z,-12.40
2018-03-01T05:38:53.997Z,-12.40
2018-03-01T05:41:22.344Z,-12.30
2018-03-01T05:43:50.684Z,-12.20
2018-03-01T05:46:19.023Z,-12.20
2018-03-01T05:48:47.363Z,-12.20
2018-03-01T05:51:15.760Z,-12.20
2018-03-01T05:53:44.079Z,-12.10
2018-03-01T05:56:12.385Z,-12.10
2018-03-01T05:58:40.700Z,-12.10
2018-03-01T06:01:09.778Z,-12.10
2018-03-01T06:03:38.089Z,-12.10
2018-03-01T06:06:07.192Z,-12.10
2018-03-01T06:08:35.852Z,-12.10
2018-03-01T06:11:04.165Z,-12.10
2018-03-01T06:13:32.506Z,-12.00
2018-03-01T06:16:00.821Z,-12.10
2018-03-01T06:18:29.164Z,-12.10
2018-03-01T06:20:57.688Z,-12.10
2018-03-01T06:23:26.403Z,-12.10
2018-03-01T06:25:54.821Z,-12.10
2018-03-01T06:28:23.711Z,-12.00
2018-03-01T06:30:52.120Z,-12.00
2018-03-01T06:33:21.825Z,-12.00
2018-03-01T06:35:50.225Z,-12.00
2018-03-01T06:38:18.543Z,-12.00
2018-03-01T06:40:46.934Z,-11.90
2018-03-01T06:43:15.243Z,-11.90
2018-03-01T06:45:44.372Z,-11.90
2018-03-01T06:48:15.673Z,-11.90
2018-03-01T06:50:44.859Z,-11.90
2018-03-01T06:53:13.289Z,-12.00
2018-03-01T06:55:42.379Z,-11.90
2018-03-01T06:58:10.690Z,-11.90
2018-03-01T07:00:39.039Z,-11.80
2018-03-01T07:03:07.448Z,-11.80
2018-03-01T07:05:35.866Z,-11.80
2018-03-01T07:08:04.185Z,-11.80
2018-03-01T07:10:33.265Z,-11.80
2018-03-01T07:13:01.604Z,-11.80
2018-03-01T07:15:30.107Z,-11.80
2018-03-01T07:17:58.459Z,-11.80
2018-03-01T07:20:26.849Z,-11.90
2018-03-01T07:22:56.142Z,-11.90
2018-03-01T07:25:24.717Z,-11.90
2018-03-01T07:27:53.975Z,-11.90
2018-03-01T07:30:23.207Z,-11.90
2018-03-01T07:32:51.677Z,-11.90
2018-03-01T07:35:20.845Z,-11.80
2018-03-01T07:37:49.738Z,-11.80
2018-03-01T07:40:18.647Z,-11.80
2018-03-01T07:42:47.059Z,-11.70
2018-03-01T07:45:15.390Z,-11.70
2018-03-01T07:47:44.502Z,-11.60
2018-03-01T07:50:13.578Z,-11.60
2018-03-01T07:52:41.969Z,-11.60
2018-03-01T07:55:10.316Z,-11.60
2018-03-01T07:57:38.664Z,-11.50
2018-03-01T08:00:06.996Z,-11.50
2018-03-01T08:02:35.335Z,-11.50
2018-03-01T08:05:03.717Z,-11.40
2018-03-01T08:07:32.071Z,-11.30
2018-03-01T08:10:00.405Z,-11.30
2018-03-01T08:12:28.724Z,-11.20
2018-03-01T08:14:57.869Z,-11.10
2018-03-01T08:17:26.711Z,-11.10
2018-03-01T08:19:55.091Z,-11.00
2018-03-01T08:22:23.552Z,-11.10
2018-03-01T08:24:51.916Z,-11.00
2018-03-01T08:27:20.572Z,-11.00
2018-03-01T08:29:48.958Z,-10.90
2018-03-01T08:32:17.334Z,-10.80
2018-03-01T08:34:45.660Z,-10.80
2018-03-01T08:37:14.019Z,-10.80
2018-03-01T08:39:42.326Z,-10.80
2018-03-01T08:42:10.705Z,-10.70
2018-03-01T08:44:39.072Z,-10.60
2018-03-01T08:47:07.388Z,-10.50
2018-03-01T08:49:35.701Z,-10.40
2018-03-01T08:52:03.993Z,-10.40
2018-03-01T08:54:32.383Z,-10.40
2018-03-01T08:57:00.716Z,-10.40
2018-03-01T08:59:29.823Z,-10.20
2018-03-01T09:01:58.975Z,-10.20
2018-03-01T09:04:27.323Z,-10.20
2018-03-01T09:06:55.750Z,-10.10
2018-03-01T09:09:24.087Z,-10.00
2018-03-01T09:11:53.301Z,-9.80
2018-03-01T09:14:21.751Z,-9.80
2018-03-01T09:16:50.213Z,-9.70
2018-03-01T09:19:19.360Z,-9.50
2018-03-01T09:21:47.684Z,-9.60
2018-03-01T09:24:16.024Z,-9.50
2018-03-01T09:26:44.360Z,-9.40
2018-03-01T09:29:12.667Z,-9.40
2018-03-01T09:31:41.373Z,-9.30
2018-03-01T09:34:10.512Z,-9.10
2018-03-01T09:36:38.816Z,-9.10
2018-03-01T09:39:07.123Z,-9.00
2018-03-01T09:41:35.539Z,-8.90
2018-03-01T09:44:04.245Z,-8.80
2018-03-01T09:46:32.575Z,-8.70
2018-03-01T09:49:00.911Z,-8.70
2018-03-01T09:51:29.247Z,-8.60
2018-03-01T09:53:57.597Z,-8.60
2018-03-01T09:56:26.049Z,-8.50
2018-03-01T09:58:54.395Z,-8.50
2018-03-01T10:01:23.519Z,-8.40
2018-03-01T10:03:52.709Z,-8.30
2018-03-01T10:06:21.141Z,-8.30
2018-03-01T10:08:49.716Z,-8.30
2018-03-01T10:11:18.817Z,-8.00
2018-03-01T10:13:47.918Z,-8.00
2018-03-01T10:16:17.101Z,-8.00
2018-03-01T10:18:45.438Z,-7.90
2018-03-01T10:21:14.708Z,-7.80
2018-03-01T10:23:43.103Z,-7.80
2018-03-01T10:26:11.435Z,-7.80
2018-03-01T10:28:40.627Z,-7.60
2018-03-01T10:31:09.729Z,-7.70
2018-03-01T10:33:43.847Z,-7.70
2018-03-01T10:36:12.349Z,-7.70
2018-03-01T10:38:40.711Z,-7.70
2018-03-01T10:41:09.045Z,-7.60
2018-03-01T10:43:37.455Z,-7.50
2018-03-01T10:46:06.617Z,-7.30
2018-03-01T10:48:34.963Z,-7.30
2018-03-01T10:51:04.196Z,-7.20
2018-03-01T10:53:32.531Z,-7.20
2018-03-01T10:56:00.855Z,-7.10
2018-03-01T10:58:30.063Z,-6.70
2018-03-01T11:00:59.270Z,-6.60
2018-03-01T11:03:27.595Z,-6.60
2018-03-01T11:05:55.951Z,-6.50
2018-03-01T11:08:25.200Z,-5.80
2018-03-01T11:10:54.479Z,-5.80
2018-03-01T11:13:22.915Z,-5.80
2018-03-01T11:15:52.131Z,-5.60
2018-03-01T11:18:20.546Z,-5.60
2018-03-01T11:20:48.929Z,-5.30
2018-03-01T11:23:17.354Z,-5.50
2018-03-01T11:25:45.660Z,-5.70
2018-03-01T11:28:13.994Z,-5.70
2018-03-01T11:30:42.444Z,-5.50
2018-03-01T11:33:10.801Z,-5.40
2018-03-01T11:35:39.188Z,-5.20
2018-03-01T11:38:07.527Z,-5.20
2018-03-01T11:40:35.859Z,-5.30
2018-03-01T11:43:04.158Z,-5.20
2018-03-01T11:45:32.570Z,-5.00
2018-03-01T11:48:00.971Z,-5.10
2018-03-01T11:50:30.077Z,-5.40
2018-03-01T11:52:59.466Z,-5.30
2018-03-01T11:55:27.996Z,-5.30
2018-03-01T11:57:57.283Z,-5.40
2018-03-01T12:00:25.702Z,-5.50
2018-03-01T12:02:54.291Z,-5.50
2018-03-01T12:05:22.973Z,-5.50
2018-03-01T12:07:51.768Z,-5.40
2018-03-01T12:10:21.284Z,-5.60
2018-03-01T12:12:51.141Z,-5.50
2018-03-01T12:15:20.480Z,-5.50
2018-03-01T12:17:49.686Z,-5.30
2018-03-01T12:20:18.565Z,-5.20
2018-03-01T12:22:47.368Z,-5.10
2018-03-01T12:25:16.000Z,-5.00
2018-03-01T12:27:44.339Z,-4.80
2018-03-01T12:30:12.834Z,-4.90
2018-03-01T12:32:41.162Z,-4.90
2018-03-01T12:35:09.481Z,-4.90
2018-03-01T12:37:37.882Z,-5.00
2018-03-01T12:40:06.225Z,-4.90
2018-03-01T12:42:34.697Z,-4.60
2018-03-01T12:45:03.819Z,-4.60
2018-03-01T12:47:32.931Z,-4.40
2018-03-01T12:50:02.052Z,-4.50
2018-03-01T12:52:31.126Z,-4.40
2018-03-01T12:54:59.907Z,-4.40
2018-03-01T12:57:28.317Z,-4.20
2018-03-01T12:59:56.688Z,-4.20
2018-03-01T13:02:25.861Z,-3.60
2018-03-01T13:04:58.080Z,-3.60
2018-03-01T13:07:26.864Z,-3.80
2018-03-01T13:09:55.322Z,-3.80
2018-03-01T13:12:23.724Z,-3.60
2018-03-01T13:14:52.274Z,-3.50
2018-03-01T13:17:20.637Z,-3.30
2018-03-01T13:19:49.110Z,-3.00
2018-03-01T13:22:17.554Z,-3.00
2018-03-01T13:24:45.921Z,-2.90
2018-03-01T13:27:14.288Z,-3.00
2018-03-01T13:29:42.616Z,-2.70
2018-03-01T13:32:24.907Z,-2.90
2018-03-01T13:34:59.040Z,-2.60
2018-03-01T13:37:29.372Z,-2.90
2018-03-01T13:39:58.895Z,-2.90
2018-03-01T13:42:28.211Z,-2.70
2018-03-01T13:44:56.572Z,-2.40
2018-03-01T13:47:27.248Z,-2.90
2018-03-01T13:49:55.620Z,-2.90
2018-03-01T13:52:24.365Z,-3.20
2018-03-01T13:54:53.470Z,-3.10
2018-03-01T13:57:22.729Z,-2.70
2018-03-01T13:59:51.923Z,-2.90
2018-03-01T14:02:20.513Z,-2.90
2018-03-01T14:04:49.449Z,-2.80
2018-03-01T14:07:27.891Z,-3.00
2018-03-01T14:09:56.307Z,-3.00
2018-03-01T14:12:26.221Z,-3.20
2018-03-01T14:14:54.681Z,-3.10
2018-03-01T14:17:23.847Z,-3.30
2018-03-01T14:20:03.287Z,-3.30
2018-03-01T14:22:37.389Z,-3.30
2018-03-01T14:25:24.572Z,-3.40
2018-03-01T14:28:08.001Z,-3.30
2018-03-01T14:30:37.162Z,-2.80
2018-03-01T14:33:06.266Z,-2.60
2018-03-01T14:35:34.610Z,-2.60
2018-03-01T14:38:02.945Z,-2.70
2018-03-01T14:40:32.059Z,-3.00
2018-03-01T14:43:01.225Z,-2.80
2018-03-01T14:45:29.594Z,-2.80
2018-03-01T14:47:58.055Z,-3.00
2018-03-01T14:50:27.241Z,-3.60
2018-03-01T14:52:55.647Z,-3.60
2018-03-01T14:55:24.193Z,-3.70
2018-03-01T14:57:52.800Z,-3.80
2018-03-01T15:00:21.488Z,-3.80
2018-03-01T15:02:50.875Z,-3.70
2018-03-01T15:05:19.985Z,-3.70
2018-03-01T15:07:48.695Z,-3.60
2018-03-01T15:10:17.295Z,-3.80
2018-03-01T15:12:45.648Z,-3.90
2018-03-01T15:15:14.063Z,-3.80
2018-03-01T15:17:43.232Z,-4.20
2018-03-01T15:20:11.649Z,-4.30
2018-03-01T15:22:39.994Z,-4.10
2018-03-01T15:25:08.319Z,-4.20
2018-03-01T15:27:36.650Z,-4.20
2018-03-01T15:30:04.981Z,-4.20
2018-03-01T15:32:33.371Z,-4.20
2018-03-01T15:35:01.723Z,-4.40
2018-03-01T15:37:30.832Z,-4.60
2018-03-01T15:39:59.202Z,-4.60
2018-03-01T15:42:27.856Z,-4.80
2018-03-01T15:44:57.796Z,-4.90
2018-03-01T15:47:26.883Z,-5.00
2018-03-01T15:49:57.567Z,-5.10
2018-03-01T15:52:25.965Z,-5.30
2018-03-01T15:54:54.392Z,-5.40
2018-03-01T15:57:22.911Z,-5.50
2018-03-01T15:59:51.274Z,-5.50
2018-03-01T16:02:19.804Z,-5.50
2018-03-01T16:04:48.168Z,-5.60
2018-03-01T16:07:16.501Z,-5.70
2018-03-01T16:09:44.859Z,-5.80
2018-03-01T16:12:13.242Z,-6.00
2018-03-01T16:14:41.946Z,-6.10
2018-03-01T16:17:10.382Z,-6.20
2018-03-01T16:19:38.717Z,-6.30
2018-03-01T16:22:07.060Z,-6.40
2018-03-01T16:24:35.412Z,-6.50
2018-03-01T16:27:03.796Z,-6.50
2018-03-01T16:29:32.127Z,-6.60
2018-03-01T16:32:00.482Z,-6.70
2018-03-01T16:34:29.005Z,-6.80
2018-03-01T16:36:57.362Z,-6.90
2018-03-01T16:39:25.855Z,-6.90
2018-03-01T16:41:54.224Z,-7.00
2018-03-01T16:44:22.811Z,-7.00
2018-03-01T16:46:53.114Z,-7.10
2018-03-01T16:49:21.591Z,-7.10
2018-03-01T16:51:50.348Z,-7.20
2018-03-01T16:54:19.754Z,-7.30
2018-03-01T16:56:48.175Z,-7.30
2018-03-01T16:59:17.279Z,-7.50
2018-03-01T17:01:47.565Z,-7.60
2018-03-01T17:04:16.471Z,-7.60
2018-03-01T17:06:45.367Z,-7.60
2018-03-01T17:09:13.821Z,-7.60
2018-03-01T17:11:42.941Z,-7.70
2018-03-01T17:14:12.133Z,-7.80
2018-03-01T17:16:41.309Z,-7.90
2018-03-01T17:19:09.660Z,-7.90
2018-03-01T17:21:38.016Z,-8.00
2018-03-01T17:24:06.368Z,-8.00
2018-03-01T17:26:34.775Z,-8.00
2018-03-01T17:29:03.162Z,-8.10
2018-03-01T17:31:32.292Z,-8.10
2018-03-01T17:34:00.642Z,-8.10
2018-03-01T17:36:29.034Z,-8.10
2018-03-01T17:38:57.421Z,-8.20
2018-03-01T17:41:26.308Z,-8.20
2018-03-01T17:43:54.677Z,-8.20
2018-03-01T17:46:23.101Z,-8.20
2018-03-01T17:48:51.469Z,-8.20
2018-03-01T17:51:20.575Z,-8.20
2018-03-01T17:53:49.008Z,-8.20
2018-03-01T17:56:17.399Z,-8.20
2018-03-01T17:58:45.738Z,-8.30
2018-03-01T18:01:14.070Z,-8.30
2018-03-01T18:03:42.410Z,-8.40
2018-03-01T18:06:10.820Z,-8.50
2018-03-01T18:08:39.147Z,-8.50
2018-03-01T18:11:07.489Z,-8.60
2018-03-01T18:13:35.831Z,-8.60
2018-03-01T18:16:04.177Z,-8.60
2018-03-01T18:18:32.655Z,-8.60
2018-03-01T18:21:01.070Z,-8.60
2018-03-01T18:23:29.411Z,-8.70
2018-03-01T18:25:57.753Z,-8.60
2018-03-01T18:28:26.120Z,-8.60
2018-03-01T18:30:54.532Z,-8.50
2018-03-01T18:33:22.936Z,-8.60
2018-03-01T18:35:52.051Z,-8.70
2018-03-01T18:38:21.175Z,-8.80
2018-03-01T18:40:49.598Z,-8.80
2018-03-01T18:43:18.020Z,-8.80
2018-03-01T18:45:46.365Z,-8.80
2018-03-01T18:48:14.748Z,-8.80
2018-03-01T18:50:43.086Z,-8.90
2018-03-01T18:53:11.426Z,-8.80
2018-03-01T18:55:39.831Z,-8.80
2018-03-01T18:58:08.187Z,-8.80
2018-03-01T19:00:36.574Z,-8.90
2018-03-01T19:03:04.901Z,-8.90
2018-03-01T19:05:33.227Z,-8.90
2018-03-01T19:08:01.623Z,-8.80
2018-03-01T19:10:29.982Z,-8.80
2018-03-01T19:12:58.336Z,-8.90
2018-03-01T19:15:26.691Z,-8.90
2018-03-01T19:17:55.043Z,-8.90
2018-03-01T19:20:23.531Z,-9.00
2018-03-01T19:22:51.869Z,-9.00
2018-03-01T19:25:20.245Z,-9.00
2018-03-01T19:27:48.664Z,-9.00
2018-03-01T19:30:17.000Z,-9.10
2018-03-01T19:32:45.387Z,-9.10
2018-03-01T19:35:13.735Z,-9.20
2018-03-01T19:37:42.080Z,-9.20
2018-03-01T19:40:10.404Z,-9.30
2018-03-01T19:42:38.743Z,-9.30
2018-03-01T19:45:07.936Z,-9.20
2018-03-01T19:47:36.369Z,-9.30
2018-03-01T19:50:04.699Z,-9.20
2018-03-01T19:52:33.051Z,-9.30
2018-03-01T19:55:01.374Z,-9.20
2018-03-01T19:57:29.770Z,-9.20
2018-03-01T19:59:58.118Z,-9.20
2018-03-01T20:02:26.490Z,-9.20
2018-03-01T20:04:55.606Z,-9.30
2018-03-01T20:07:24.722Z,-9.30
2018-03-01T20:09:53.172Z,-9.30
2018-03-01T20:12:21.534Z,-9.30
2018-03-01T20:14:49.899Z,-9.30
2018-03-01T20:17:33.074Z,-9.30
2018-03-01T20:20:01.425Z,-9.30
2018-03-01T20:22:29.794Z,-9.30
2018-03-01T20:24:58.256Z,-9.30
2018-03-01T20:27:26.602Z,-9.30
2018-03-01T20:29:55.739Z,-9.40
2018-03-01T20:32:24.165Z,-9.40
2018-03-01T20:34:52.688Z,-9.50
2018-03-01T20:37:21.228Z,-9.50
2018-03-01T20:39:49.592Z,-9.40
2018-03-01T20:42:18.743Z,-9.40
2018-03-01T20:44:47.957Z,-9.40
2018-03-01T20:47:17.450Z,-9.40
2018-03-01T20:49:47.393Z,-9.40
2018-03-01T20:52:15.795Z,-9.40
2018-03-01T20:54:44.937Z,-9.40
2018-03-01T20:57:13.262Z,-9.40
2018-03-01T20:59:41.676Z,-9.40
2018-03-01T21:02:10.023Z,-9.40
2018-03-01T21:04:38.411Z,-9.50
2018-03-01T21:07:06.748Z,-9.50
2018-03-01T21:09:35.098Z,-9.50
2018-03-01T21:12:03.431Z,-9.50
2018-03-01T21:14:31.784Z,-9.60
2018-03-01T21:17:00.197Z,-9.60
2018-03-01T21:19:28.542Z,-9.60
2018-03-01T21:21:57.659Z,-9.60
2018-03-01T21:24:26.019Z,-9.60
2018-03-01T21:26:55.131Z,-9.60
2018-03-01T21:29:23.591Z,-9.60
2018-03-01T21:31:51.964Z,-9.60
2018-03-01T21:34:20.477Z,-9.60
2018-03-01T21:36:48.970Z,-9.70
2018-03-01T21:39:17.751Z,-9.70
2018-03-01T21:41:46.953Z,-9.70
2018-03-01T21:44:15.557Z,-9.70
2018-03-01T21:46:55.923Z,-9.70
2018-03-01T21:49:24.408Z,-9.70
2018-03-01T21:51:52.796Z,-9.70
2018-03-01T21:54:21.189Z,-9.70
2018-03-01T21:56:49.543Z,-9.70
2018-03-01T21:59:18.767Z,-9.90
2018-03-01T22:01:47.926Z,-9.90
2018-03-01T22:04:16.351Z,-9.90
2018-03-01T22:06:44.842Z,-9.90
2018-03-01T22:09:13.206Z,-9.90
2018-03-01T22:11:41.689Z,-9.90
2018-03-01T22:14:10.034Z,-9.90
2018-03-01T22:16:39.163Z,-9.90
2018-03-01T22:19:08.259Z,-9.90
2018-03-01T22:21:37.379Z,-10.00
2018-03-01T22:24:06.632Z,-10.00
2018-03-01T22:26:34.977Z,-10.00
2018-03-01T22:29:04.087Z,-10.00
2018-03-01T22:31:33.204Z,-10.00
2018-03-01T22:34:02.357Z,-10.00
2018-03-01T22:36:30.846Z,-10.00
2018-03-01T22:38:59.282Z,-10.00
2018-03-01T22:41:28.374Z,-10.20
2018-03-01T22:43:56.737Z,-10.20
2018-03-01T22:46:25.101Z,-10.20
2018-03-01T22:48:53.573Z,-10.20
2018-03-01T22:51:22.755Z,-10.20
2018-03-01T22:53:51.138Z,-10.20
2018-03-01T22:56:19.538Z,-10.20
2018-03-01T22:58:48.013Z,-10.20
2018-03-01T23:01:16.972Z,-10.20
2018-03-01T23:03:46.188Z,-10.20
2018-03-01T23:06:14.674Z,-10.30
2018-03-01T23:08:43.882Z,-10.30
2018-03-01T23:11:12.966Z,-10.30
2018-03-01T23:13:42.046Z,-10.30
2018-03-01T23:16:10.373Z,-10.30
2018-03-01T23:18:38.686Z,-10.30
2018-03-01T23:21:07.778Z,-10.40
2018-03-01T23:23:36.088Z,-10.40
2018-03-01T23:26:05.180Z,-10.40
2018-03-01T23:28:33.485Z,-10.40
2018-03-01T23:31:02.574Z,-10.50
2018-03-01T23:33:30.916Z,-10.50
2018-03-01T23:35:59.226Z,-10.50
2018-03-01T23:38:27.534Z,-10.50
2018-03-01T23:40:55.844Z,-10.50
2018-03-01T23:43:25.008Z,-10.50
2018-03-01T23:45:53.370Z,-10.50
2018-03-01T23:48:21.822Z,-10.50
2018-03-01T23:50:50.167Z,-10.60
2018-03-01T23:53:18.516Z,-10.60
2018-03-01T23:55:47.031Z,-10.60
2018-03-01T23:58:15.393Z,-10.50
